sensor_id;sensor_type;location;lat;lon;timestamp;P1;durP1;ratioP1;P2;durP2;ratioP2
21352;SDS011;10834;52.268;6.770;2024-03-08T00:01:23;37.00;;;19.10;;
21352;SDS011;10834;52.268;6.770;2024-03-08T00:04:07;33.83;;;17.87;;
21352;SDS011;10834;52.268;6.770;2024-03-08T00:06:51;34.23;;;18.53;;
21352;SDS011;10834;52.268;6.770;2024-03-08T00:09:35;34.83;;;19.30;;
21352;SDS011;10834;52.268;6.770;2024-03-08T00:12:20;35.43;;;18.40;;
21352;SDS011;10834;52.268;6.770;2024-03-08T00:15:04;32.63;;;17.93;;
21352;SDS011;10834;52.268;6.770;2024-03-08T00:17:50;34.07;;;18.63;;
21352;SDS011;10834;52.268;6.770;2024-03-08T00:20:34;32.23;;;17.47;;
21352;SDS011;10834;52.268;6.770;2024-03-08T00:23:18;32.87;;;17.90;;
21352;SDS011;10834;52.268;6.770;2024-03-08T00:26:02;34.00;;;18.23;;
21352;SDS011;10834;52.268;6.770;2024-03-08T00:28:50;31.67;;;17.60;;
21352;SDS011;10834;52.268;6.770;2024-03-08T00:31:34;36.70;;;19.97;;
21352;SDS011;10834;52.268;6.770;2024-03-08T00:34:18;35.83;;;18.63;;
21352;SDS011;10834;52.268;6.770;2024-03-08T00:37:03;34.43;;;18.80;;
21352;SDS011;10834;52.268;6.770;2024-03-08T00:39:48;32.90;;;18.53;;
21352;SDS011;10834;52.268;6.770;2024-03-08T00:42:36;38.20;;;18.30;;
21352;SDS011;10834;52.268;6.770;2024-03-08T00:45:21;39.07;;;18.03;;
21352;SDS011;10834;52.268;6.770;2024-03-08T00:48:07;32.33;;;18.57;;
21352;SDS011;10834;52.268;6.770;2024-03-08T00:50:51;37.27;;;17.93;;
21352;SDS011;10834;52.268;6.770;2024-03-08T00:53:36;29.47;;;18.27;;
21352;SDS011;10834;52.268;6.770;2024-03-08T00:56:20;32.30;;;18.10;;
21352;SDS011;10834;52.268;6.770;2024-03-08T00:59:04;27.90;;;17.73;;
21352;SDS011;10834;52.268;6.770;2024-03-08T01:01:51;31.13;;;18.80;;
21352;SDS011;10834;52.268;6.770;2024-03-08T01:04:35;33.07;;;18.20;;
21352;SDS011;10834;52.268;6.770;2024-03-08T01:07:19;31.23;;;17.80;;
21352;SDS011;10834;52.268;6.770;2024-03-08T01:10:03;32.73;;;18.33;;
21352;SDS011;10834;52.268;6.770;2024-03-08T01:12:48;33.57;;;18.67;;
21352;SDS011;10834;52.268;6.770;2024-03-08T01:15:33;36.20;;;18.80;;
21352;SDS011;10834;52.268;6.770;2024-03-08T01:18:17;35.57;;;18.73;;
21352;SDS011;10834;52.268;6.770;2024-03-08T01:21:03;34.53;;;19.40;;
21352;SDS011;10834;52.268;6.770;2024-03-08T01:23:47;33.67;;;18.67;;
21352;SDS011;10834;52.268;6.770;2024-03-08T01:26:31;29.00;;;17.70;;
21352;SDS011;10834;52.268;6.770;2024-03-08T01:29:17;32.27;;;18.60;;
21352;SDS011;10834;52.268;6.770;2024-03-08T01:32:01;30.77;;;18.33;;
21352;SDS011;10834;52.268;6.770;2024-03-08T01:34:46;30.93;;;18.43;;
21352;SDS011;10834;52.268;6.770;2024-03-08T01:37:30;34.77;;;18.20;;
21352;SDS011;10834;52.268;6.770;2024-03-08T01:40:14;29.63;;;17.57;;
21352;SDS011;10834;52.268;6.770;2024-03-08T01:43:16;36.53;;;20.07;;
21352;SDS011;10834;52.268;6.770;2024-03-08T01:46:00;32.53;;;19.47;;
21352;SDS011;10834;52.268;6.770;2024-03-08T01:48:45;31.80;;;18.03;;
21352;SDS011;10834;52.268;6.770;2024-03-08T01:51:30;32.87;;;18.80;;
21352;SDS011;10834;52.268;6.770;2024-03-08T01:54:15;36.80;;;20.43;;
21352;SDS011;10834;52.268;6.770;2024-03-08T01:57:02;35.63;;;19.17;;
21352;SDS011;10834;52.268;6.770;2024-03-08T01:59:46;34.77;;;19.77;;
21352;SDS011;10834;52.268;6.770;2024-03-08T02:02:32;31.93;;;18.00;;
21352;SDS011;10834;52.268;6.770;2024-03-08T02:05:17;38.67;;;20.17;;
21352;SDS011;10834;52.268;6.770;2024-03-08T02:08:02;35.27;;;18.73;;
21352;SDS011;10834;52.268;6.770;2024-03-08T02:10:47;33.77;;;20.50;;
21352;SDS011;10834;52.268;6.770;2024-03-08T02:13:32;36.27;;;18.90;;
21352;SDS011;10834;52.268;6.770;2024-03-08T02:16:21;33.00;;;19.70;;
21352;SDS011;10834;52.268;6.770;2024-03-08T02:19:06;31.17;;;19.70;;
21352;SDS011;10834;52.268;6.770;2024-03-08T02:21:53;30.77;;;18.30;;
21352;SDS011;10834;52.268;6.770;2024-03-08T02:24:38;41.17;;;21.13;;
21352;SDS011;10834;52.268;6.770;2024-03-08T02:27:25;36.83;;;19.73;;
21352;SDS011;10834;52.268;6.770;2024-03-08T02:30:09;32.10;;;18.83;;
21352;SDS011;10834;52.268;6.770;2024-03-08T02:32:56;29.77;;;17.57;;
21352;SDS011;10834;52.268;6.770;2024-03-08T02:35:41;34.37;;;19.57;;
21352;SDS011;10834;52.268;6.770;2024-03-08T02:38:26;32.13;;;18.20;;
21352;SDS011;10834;52.268;6.770;2024-03-08T02:41:10;31.13;;;19.50;;
21352;SDS011;10834;52.268;6.770;2024-03-08T02:43:56;36.90;;;20.33;;
21352;SDS011;10834;52.268;6.770;2024-03-08T02:46:40;37.77;;;19.37;;
21352;SDS011;10834;52.268;6.770;2024-03-08T02:49:25;33.37;;;20.17;;
21352;SDS011;10834;52.268;6.770;2024-03-08T02:52:10;30.77;;;18.10;;
21352;SDS011;10834;52.268;6.770;2024-03-08T02:54:54;38.33;;;20.77;;
21352;SDS011;10834;52.268;6.770;2024-03-08T02:57:38;34.43;;;19.63;;
21352;SDS011;10834;52.268;6.770;2024-03-08T03:00:23;38.23;;;20.50;;
21352;SDS011;10834;52.268;6.770;2024-03-08T03:03:08;34.07;;;19.53;;
21352;SDS011;10834;52.268;6.770;2024-03-08T03:05:52;38.50;;;21.13;;
21352;SDS011;10834;52.268;6.770;2024-03-08T03:08:39;35.07;;;20.83;;
21352;SDS011;10834;52.268;6.770;2024-03-08T03:11:26;36.53;;;20.13;;
21352;SDS011;10834;52.268;6.770;2024-03-08T03:14:10;34.53;;;19.60;;
21352;SDS011;10834;52.268;6.770;2024-03-08T03:16:54;32.13;;;20.43;;
21352;SDS011;10834;52.268;6.770;2024-03-08T03:19:42;31.97;;;20.07;;
21352;SDS011;10834;52.268;6.770;2024-03-08T03:22:26;33.33;;;19.00;;
21352;SDS011;10834;52.268;6.770;2024-03-08T03:25:10;41.63;;;20.40;;
21352;SDS011;10834;52.268;6.770;2024-03-08T03:27:56;32.50;;;18.90;;
21352;SDS011;10834;52.268;6.770;2024-03-08T03:30:40;34.50;;;19.47;;
21352;SDS011;10834;52.268;6.770;2024-03-08T03:33:25;37.43;;;20.67;;
21352;SDS011;10834;52.268;6.770;2024-03-08T03:36:09;36.20;;;20.83;;
21352;SDS011;10834;52.268;6.770;2024-03-08T03:38:53;37.40;;;20.53;;
21352;SDS011;10834;52.268;6.770;2024-03-08T03:41:54;36.50;;;20.30;;
21352;SDS011;10834;52.268;6.770;2024-03-08T03:44:38;34.50;;;19.23;;
21352;SDS011;10834;52.268;6.770;2024-03-08T03:47:23;35.07;;;19.63;;
21352;SDS011;10834;52.268;6.770;2024-03-08T03:50:07;38.53;;;20.57;;
21352;SDS011;10834;52.268;6.770;2024-03-08T03:52:53;39.63;;;20.17;;
21352;SDS011;10834;52.268;6.770;2024-03-08T03:55:38;33.97;;;20.00;;
21352;SDS011;10834;52.268;6.770;2024-03-08T03:58:22;34.90;;;21.70;;
21352;SDS011;10834;52.268;6.770;2024-03-08T04:01:06;31.37;;;20.83;;
21352;SDS011;10834;52.268;6.770;2024-03-08T04:03:51;38.47;;;20.87;;
21352;SDS011;10834;52.268;6.770;2024-03-08T04:06:35;37.20;;;21.63;;
21352;SDS011;10834;52.268;6.770;2024-03-08T04:09:19;35.47;;;20.50;;
21352;SDS011;10834;52.268;6.770;2024-03-08T04:12:05;34.40;;;20.53;;
21352;SDS011;10834;52.268;6.770;2024-03-08T04:14:50;40.33;;;22.27;;
21352;SDS011;10834;52.268;6.770;2024-03-08T04:17:34;36.10;;;21.73;;
21352;SDS011;10834;52.268;6.770;2024-03-08T04:20:21;33.23;;;20.67;;
21352;SDS011;10834;52.268;6.770;2024-03-08T04:23:05;36.93;;;21.90;;
21352;SDS011;10834;52.268;6.770;2024-03-08T04:25:50;35.60;;;21.17;;
21352;SDS011;10834;52.268;6.770;2024-03-08T04:28:34;35.23;;;21.30;;
21352;SDS011;10834;52.268;6.770;2024-03-08T04:31:19;35.40;;;20.23;;
21352;SDS011;10834;52.268;6.770;2024-03-08T04:34:03;36.73;;;21.07;;
21352;SDS011;10834;52.268;6.770;2024-03-08T04:36:48;42.70;;;22.07;;
21352;SDS011;10834;52.268;6.770;2024-03-08T04:39:33;36.33;;;22.03;;
21352;SDS011;10834;52.268;6.770;2024-03-08T04:42:17;37.37;;;21.33;;
21352;SDS011;10834;52.268;6.770;2024-03-08T04:45:02;35.87;;;22.03;;
21352;SDS011;10834;52.268;6.770;2024-03-08T04:47:48;36.37;;;21.73;;
21352;SDS011;10834;52.268;6.770;2024-03-08T04:50:32;32.27;;;20.93;;
21352;SDS011;10834;52.268;6.770;2024-03-08T04:53:16;39.27;;;21.43;;
21352;SDS011;10834;52.268;6.770;2024-03-08T04:56:01;35.53;;;22.43;;
21352;SDS011;10834;52.268;6.770;2024-03-08T04:58:49;40.37;;;22.17;;
21352;SDS011;10834;52.268;6.770;2024-03-08T05:01:34;40.50;;;22.33;;
21352;SDS011;10834;52.268;6.770;2024-03-08T05:04:21;36.33;;;22.17;;
21352;SDS011;10834;52.268;6.770;2024-03-08T05:07:06;38.30;;;21.77;;
21352;SDS011;10834;52.268;6.770;2024-03-08T05:09:50;39.90;;;20.13;;
21352;SDS011;10834;52.268;6.770;2024-03-08T05:12:35;37.50;;;22.00;;
21352;SDS011;10834;52.268;6.770;2024-03-08T05:15:19;35.33;;;21.60;;
21352;SDS011;10834;52.268;6.770;2024-03-08T05:18:04;38.63;;;22.30;;
21352;SDS011;10834;52.268;6.770;2024-03-08T05:20:48;36.90;;;22.07;;
21352;SDS011;10834;52.268;6.770;2024-03-08T05:23:32;42.63;;;22.20;;
21352;SDS011;10834;52.268;6.770;2024-03-08T05:26:17;42.00;;;23.63;;
21352;SDS011;10834;52.268;6.770;2024-03-08T05:29:01;39.47;;;22.70;;
21352;SDS011;10834;52.268;6.770;2024-03-08T05:31:47;38.23;;;22.30;;
21352;SDS011;10834;52.268;6.770;2024-03-08T05:34:33;38.60;;;21.77;;
21352;SDS011;10834;52.268;6.770;2024-03-08T05:37:17;38.17;;;21.13;;
21352;SDS011;10834;52.268;6.770;2024-03-08T05:40:05;39.47;;;23.40;;
21352;SDS011;10834;52.268;6.770;2024-03-08T05:42:53;44.57;;;23.60;;
21352;SDS011;10834;52.268;6.770;2024-03-08T05:45:38;42.53;;;22.47;;
21352;SDS011;10834;52.268;6.770;2024-03-08T05:48:22;44.80;;;24.40;;
21352;SDS011;10834;52.268;6.770;2024-03-08T05:51:06;40.00;;;22.60;;
21352;SDS011;10834;52.268;6.770;2024-03-08T05:53:50;40.83;;;22.77;;
21352;SDS011;10834;52.268;6.770;2024-03-08T05:56:37;39.07;;;22.63;;
21352;SDS011;10834;52.268;6.770;2024-03-08T05:59:21;39.13;;;22.80;;
21352;SDS011;10834;52.268;6.770;2024-03-08T06:02:06;40.20;;;21.83;;
21352;SDS011;10834;52.268;6.770;2024-03-08T06:04:50;44.87;;;23.80;;
21352;SDS011;10834;52.268;6.770;2024-03-08T06:07:34;38.10;;;23.57;;
21352;SDS011;10834;52.268;6.770;2024-03-08T06:10:19;42.23;;;23.00;;
21352;SDS011;10834;52.268;6.770;2024-03-08T06:13:04;34.13;;;21.37;;
21352;SDS011;10834;52.268;6.770;2024-03-08T06:15:48;37.90;;;23.30;;
21352;SDS011;10834;52.268;6.770;2024-03-08T06:18:36;43.53;;;23.67;;
21352;SDS011;10834;52.268;6.770;2024-03-08T06:21:22;43.20;;;23.63;;
21352;SDS011;10834;52.268;6.770;2024-03-08T06:24:06;42.83;;;22.60;;
21352;SDS011;10834;52.268;6.770;2024-03-08T06:26:51;37.87;;;23.53;;
21352;SDS011;10834;52.268;6.770;2024-03-08T06:29:35;42.43;;;22.43;;
21352;SDS011;10834;52.268;6.770;2024-03-08T06:32:19;48.87;;;24.57;;
21352;SDS011;10834;52.268;6.770;2024-03-08T06:35:04;40.57;;;22.90;;
21352;SDS011;10834;52.268;6.770;2024-03-08T06:37:53;40.13;;;22.60;;
21352;SDS011;10834;52.268;6.770;2024-03-08T06:40:38;37.87;;;21.13;;
21352;SDS011;10834;52.268;6.770;2024-03-08T06:43:22;37.47;;;22.60;;
21352;SDS011;10834;52.268;6.770;2024-03-08T06:46:08;43.73;;;23.57;;
21352;SDS011;10834;52.268;6.770;2024-03-08T06:48:53;36.97;;;22.20;;
21352;SDS011;10834;52.268;6.770;2024-03-08T06:51:37;39.53;;;21.83;;
21352;SDS011;10834;52.268;6.770;2024-03-08T06:54:21;36.10;;;20.70;;
21352;SDS011;10834;52.268;6.770;2024-03-08T06:57:05;38.43;;;22.80;;
21352;SDS011;10834;52.268;6.770;2024-03-08T06:59:49;39.63;;;22.60;;
21352;SDS011;10834;52.268;6.770;2024-03-08T07:02:36;35.23;;;22.30;;
21352;SDS011;10834;52.268;6.770;2024-03-08T07:05:20;39.90;;;22.93;;
21352;SDS011;10834;52.268;6.770;2024-03-08T07:08:04;38.87;;;21.83;;
21352;SDS011;10834;52.268;6.770;2024-03-08T07:10:49;34.37;;;21.37;;
21352;SDS011;10834;52.268;6.770;2024-03-08T07:13:33;35.60;;;21.33;;
21352;SDS011;10834;52.268;6.770;2024-03-08T07:16:18;38.23;;;22.03;;
21352;SDS011;10834;52.268;6.770;2024-03-08T07:19:02;40.87;;;22.00;;
21352;SDS011;10834;52.268;6.770;2024-03-08T07:21:47;40.10;;;22.70;;
21352;SDS011;10834;52.268;6.770;2024-03-08T07:24:31;43.07;;;23.17;;
21352;SDS011;10834;52.268;6.770;2024-03-08T07:27:31;39.30;;;22.90;;
21352;SDS011;10834;52.268;6.770;2024-03-08T07:30:15;44.80;;;23.40;;
21352;SDS011;10834;52.268;6.770;2024-03-08T07:33:18;37.77;;;22.63;;
21352;SDS011;10834;52.268;6.770;2024-03-08T07:36:03;41.30;;;23.07;;
21352;SDS011;10834;52.268;6.770;2024-03-08T07:38:47;42.43;;;23.00;;
21352;SDS011;10834;52.268;6.770;2024-03-08T07:41:32;36.80;;;23.07;;
21352;SDS011;10834;52.268;6.770;2024-03-08T07:44:20;40.87;;;22.80;;
21352;SDS011;10834;52.268;6.770;2024-03-08T07:47:04;39.83;;;21.37;;
21352;SDS011;10834;52.268;6.770;2024-03-08T07:49:48;38.90;;;22.20;;
21352;SDS011;10834;52.268;6.770;2024-03-08T07:52:32;39.50;;;22.57;;
21352;SDS011;10834;52.268;6.770;2024-03-08T07:55:17;37.47;;;21.90;;
21352;SDS011;10834;52.268;6.770;2024-03-08T07:58:02;35.23;;;22.57;;
21352;SDS011;10834;52.268;6.770;2024-03-08T08:00:47;32.07;;;20.50;;
21352;SDS011;10834;52.268;6.770;2024-03-08T08:03:32;39.17;;;21.13;;
21352;SDS011;10834;52.268;6.770;2024-03-08T08:06:16;37.73;;;21.97;;
21352;SDS011;10834;52.268;6.770;2024-03-08T08:09:00;38.77;;;21.97;;
21352;SDS011;10834;52.268;6.770;2024-03-08T08:11:45;34.13;;;20.83;;
21352;SDS011;10834;52.268;6.770;2024-03-08T08:14:30;33.70;;;21.50;;
21352;SDS011;10834;52.268;6.770;2024-03-08T08:17:14;29.47;;;20.87;;
21352;SDS011;10834;52.268;6.770;2024-03-08T08:19:58;30.67;;;20.83;;
21352;SDS011;10834;52.268;6.770;2024-03-08T08:22:43;27.20;;;20.53;;
21352;SDS011;10834;52.268;6.770;2024-03-08T08:25:27;33.20;;;22.37;;
21352;SDS011;10834;52.268;6.770;2024-03-08T08:28:12;32.20;;;22.30;;
21352;SDS011;10834;52.268;6.770;2024-03-08T08:30:58;30.13;;;21.13;;
21352;SDS011;10834;52.268;6.770;2024-03-08T08:33:43;28.63;;;20.47;;
21352;SDS011;10834;52.268;6.770;2024-03-08T08:36:27;29.23;;;22.10;;
21352;SDS011;10834;52.268;6.770;2024-03-08T08:39:13;27.23;;;21.07;;
21352;SDS011;10834;52.268;6.770;2024-03-08T08:41:57;27.27;;;22.10;;
21352;SDS011;10834;52.268;6.770;2024-03-08T08:44:41;29.30;;;21.63;;
21352;SDS011;10834;52.268;6.770;2024-03-08T08:47:25;26.63;;;22.13;;
21352;SDS011;10834;52.268;6.770;2024-03-08T08:50:09;29.75;;;22.10;;
21352;SDS011;10834;52.268;6.770;2024-03-08T08:52:55;26.38;;;21.45;;
21352;SDS011;10834;52.268;6.770;2024-03-08T08:55:40;28.85;;;21.52;;
21352;SDS011;10834;52.268;6.770;2024-03-08T08:58:24;25.65;;;22.17;;
21352;SDS011;10834;52.268;6.770;2024-03-08T09:01:09;26.92;;;22.05;;
21352;SDS011;10834;52.268;6.770;2024-03-08T09:03:56;27.25;;;22.30;;
21352;SDS011;10834;52.268;6.770;2024-03-08T09:06:40;30.73;;;23.45;;
21352;SDS011;10834;52.268;6.770;2024-03-08T09:09:24;29.50;;;22.23;;
21352;SDS011;10834;52.268;6.770;2024-03-08T09:12:09;30.05;;;23.42;;
21352;SDS011;10834;52.268;6.770;2024-03-08T09:14:56;26.75;;;23.00;;
21352;SDS011;10834;52.268;6.770;2024-03-08T09:17:40;25.02;;;21.75;;
21352;SDS011;10834;52.268;6.770;2024-03-08T09:20:24;26.98;;;22.83;;
21352;SDS011;10834;52.268;6.770;2024-03-08T09:23:09;25.23;;;21.77;;
21352;SDS011;10834;52.268;6.770;2024-03-08T09:25:53;27.30;;;21.75;;
21352;SDS011;10834;52.268;6.770;2024-03-08T09:28:37;28.25;;;21.90;;
21352;SDS011;10834;52.268;6.770;2024-03-08T09:31:22;27.65;;;22.67;;
21352;SDS011;10834;52.268;6.770;2024-03-08T09:34:06;27.38;;;21.73;;
21352;SDS011;10834;52.268;6.770;2024-03-08T09:36:52;26.60;;;21.55;;
21352;SDS011;10834;52.268;6.770;2024-03-08T09:39:36;24.25;;;21.75;;
21352;SDS011;10834;52.268;6.770;2024-03-08T09:42:20;25.95;;;23.17;;
21352;SDS011;10834;52.268;6.770;2024-03-08T09:45:08;26.70;;;22.63;;
21352;SDS011;10834;52.268;6.770;2024-03-08T09:48:00;28.38;;;22.15;;
21352;SDS011;10834;52.268;6.770;2024-03-08T09:50:45;27.77;;;23.20;;
21352;SDS011;10834;52.268;6.770;2024-03-08T09:53:30;28.08;;;22.55;;
21352;SDS011;10834;52.268;6.770;2024-03-08T09:56:14;25.08;;;22.38;;
21352;SDS011;10834;52.268;6.770;2024-03-08T09:58:59;26.67;;;21.70;;
21352;SDS011;10834;52.268;6.770;2024-03-08T10:01:49;28.65;;;23.15;;
21352;SDS011;10834;52.268;6.770;2024-03-08T10:04:35;31.58;;;21.83;;
21352;SDS011;10834;52.268;6.770;2024-03-08T10:07:19;30.33;;;22.90;;
21352;SDS011;10834;52.268;6.770;2024-03-08T10:10:04;25.40;;;21.75;;
21352;SDS011;10834;52.268;6.770;2024-03-08T10:12:49;27.27;;;21.10;;
21352;SDS011;10834;52.268;6.770;2024-03-08T10:15:33;28.10;;;20.75;;
21352;SDS011;10834;52.268;6.770;2024-03-08T10:18:18;27.08;;;20.67;;
21352;SDS011;10834;52.268;6.770;2024-03-08T10:21:06;25.85;;;19.65;;
21352;SDS011;10834;52.268;6.770;2024-03-08T10:23:52;25.80;;;21.33;;
21352;SDS011;10834;52.268;6.770;2024-03-08T10:26:37;27.27;;;22.02;;
21352;SDS011;10834;52.268;6.770;2024-03-08T10:29:21;31.20;;;22.33;;
21352;SDS011;10834;52.268;6.770;2024-03-08T10:32:06;27.20;;;20.13;;
21352;SDS011;10834;52.268;6.770;2024-03-08T10:34:51;30.50;;;21.50;;
21352;SDS011;10834;52.268;6.770;2024-03-08T10:40:31;28.60;;;21.20;;
21352;SDS011;10834;52.268;6.770;2024-03-08T10:43:18;27.90;;;19.73;;
21352;SDS011;10834;52.268;6.770;2024-03-08T10:46:16;28.60;;;20.53;;
21352;SDS011;10834;52.268;6.770;2024-03-08T10:49:16;24.97;;;19.67;;
21352;SDS011;10834;52.268;6.770;2024-03-08T10:52:02;24.87;;;19.57;;
21352;SDS011;10834;52.268;6.770;2024-03-08T10:54:47;26.77;;;20.47;;
21352;SDS011;10834;52.268;6.770;2024-03-08T10:57:34;28.10;;;20.27;;
21352;SDS011;10834;52.268;6.770;2024-03-08T11:00:21;26.10;;;20.10;;
21352;SDS011;10834;52.268;6.770;2024-03-08T11:03:57;31.50;;;21.43;;
21352;SDS011;10834;52.268;6.770;2024-03-08T11:06:30;28.17;;;20.30;;
21352;SDS011;10834;52.268;6.770;2024-03-08T11:09:30;27.57;;;19.80;;
21352;SDS011;10834;52.268;6.770;2024-03-08T11:15:13;29.67;;;19.10;;
21352;SDS011;10834;52.268;6.770;2024-03-08T11:17:58;29.52;;;22.95;;
21352;SDS011;10834;52.268;6.770;2024-03-08T11:20:43;31.93;;;20.30;;
21352;SDS011;10834;52.268;6.770;2024-03-08T11:23:28;30.67;;;20.13;;
21352;SDS011;10834;52.268;6.770;2024-03-08T11:26:18;35.67;;;20.63;;
21352;SDS011;10834;52.268;6.770;2024-03-08T11:32:19;27.52;;;21.17;;
21352;SDS011;10834;52.268;6.770;2024-03-08T11:35:06;23.60;;;18.03;;
21352;SDS011;10834;52.268;6.770;2024-03-08T11:37:52;26.47;;;18.80;;
21352;SDS011;10834;52.268;6.770;2024-03-08T11:40:37;24.90;;;17.57;;
21352;SDS011;10834;52.268;6.770;2024-03-08T11:43:23;25.90;;;18.50;;
21352;SDS011;10834;52.268;6.770;2024-03-08T11:46:08;22.77;;;16.53;;
21352;SDS011;10834;52.268;6.770;2024-03-08T11:48:54;22.13;;;17.37;;
21352;SDS011;10834;52.268;6.770;2024-03-08T11:51:41;25.23;;;17.70;;
21352;SDS011;10834;52.268;6.770;2024-03-08T11:54:25;25.83;;;17.93;;
21352;SDS011;10834;52.268;6.770;2024-03-08T11:57:09;22.53;;;16.87;;
21352;SDS011;10834;52.268;6.770;2024-03-08T11:59:54;25.80;;;17.17;;
21352;SDS011;10834;52.268;6.770;2024-03-08T12:02:42;21.37;;;16.00;;
21352;SDS011;10834;52.268;6.770;2024-03-08T12:05:34;21.43;;;16.73;;
21352;SDS011;10834;52.268;6.770;2024-03-08T12:08:18;23.60;;;16.30;;
21352;SDS011;10834;52.268;6.770;2024-03-08T12:11:06;25.33;;;16.40;;
21352;SDS011;10834;52.268;6.770;2024-03-08T12:13:53;26.23;;;16.07;;
21352;SDS011;10834;52.268;6.770;2024-03-08T12:16:37;21.83;;;16.47;;
21352;SDS011;10834;52.268;6.770;2024-03-08T12:19:22;23.00;;;15.10;;
21352;SDS011;10834;52.268;6.770;2024-03-08T12:22:09;25.83;;;16.70;;
21352;SDS011;10834;52.268;6.770;2024-03-08T12:25:12;24.97;;;16.73;;
21352;SDS011;10834;52.268;6.770;2024-03-08T12:27:56;23.27;;;17.03;;
21352;SDS011;10834;52.268;6.770;2024-03-08T12:30:50;25.30;;;15.60;;
21352;SDS011;10834;52.268;6.770;2024-03-08T12:33:50;22.13;;;15.17;;
21352;SDS011;10834;52.268;6.770;2024-03-08T12:36:35;22.43;;;15.53;;
21352;SDS011;10834;52.268;6.770;2024-03-08T12:39:20;24.07;;;14.73;;
21352;SDS011;10834;52.268;6.770;2024-03-08T12:42:06;20.63;;;15.17;;
21352;SDS011;10834;52.268;6.770;2024-03-08T12:44:50;18.20;;;14.53;;
21352;SDS011;10834;52.268;6.770;2024-03-08T12:47:34;22.57;;;14.97;;
21352;SDS011;10834;52.268;6.770;2024-03-08T12:50:19;22.33;;;15.00;;
21352;SDS011;10834;52.268;6.770;2024-03-08T12:53:04;20.93;;;13.90;;
21352;SDS011;10834;52.268;6.770;2024-03-08T12:55:48;18.17;;;14.03;;
21352;SDS011;10834;52.268;6.770;2024-03-08T12:58:33;22.23;;;14.63;;
21352;SDS011;10834;52.268;6.770;2024-03-08T13:01:18;20.93;;;14.87;;
21352;SDS011;10834;52.268;6.770;2024-03-08T13:04:03;24.03;;;14.73;;
21352;SDS011;10834;52.268;6.770;2024-03-08T13:06:47;24.13;;;15.73;;
21352;SDS011;10834;52.268;6.770;2024-03-08T13:09:33;20.17;;;14.93;;
21352;SDS011;10834;52.268;6.770;2024-03-08T13:12:21;21.40;;;15.07;;
21352;SDS011;10834;52.268;6.770;2024-03-08T13:15:06;22.03;;;14.13;;
21352;SDS011;10834;52.268;6.770;2024-03-08T13:17:52;23.67;;;16.17;;
21352;SDS011;10834;52.268;6.770;2024-03-08T13:20:36;21.70;;;14.43;;
21352;SDS011;10834;52.268;6.770;2024-03-08T13:23:23;19.43;;;13.50;;
21352;SDS011;10834;52.268;6.770;2024-03-08T13:26:07;18.53;;;14.00;;
21352;SDS011;10834;52.268;6.770;2024-03-08T13:28:52;22.33;;;14.93;;
21352;SDS011;10834;52.268;6.770;2024-03-08T13:31:37;22.07;;;14.43;;
21352;SDS011;10834;52.268;6.770;2024-03-08T13:34:22;21.83;;;15.50;;
21352;SDS011;10834;52.268;6.770;2024-03-08T13:37:11;20.10;;;14.80;;
21352;SDS011;10834;52.268;6.770;2024-03-08T13:39:55;21.33;;;14.97;;
21352;SDS011;10834;52.268;6.770;2024-03-08T13:42:40;20.53;;;15.37;;
21352;SDS011;10834;52.268;6.770;2024-03-08T13:45:24;21.17;;;14.93;;
21352;SDS011;10834;52.268;6.770;2024-03-08T13:48:09;19.93;;;15.50;;
21352;SDS011;10834;52.268;6.770;2024-03-08T13:50:56;22.57;;;15.10;;
21352;SDS011;10834;52.268;6.770;2024-03-08T13:53:40;22.33;;;15.10;;
21352;SDS011;10834;52.268;6.770;2024-03-08T13:56:25;22.07;;;15.83;;
21352;SDS011;10834;52.268;6.770;2024-03-08T13:59:10;21.63;;;14.97;;
21352;SDS011;10834;52.268;6.770;2024-03-08T14:01:55;23.40;;;15.70;;
21352;SDS011;10834;52.268;6.770;2024-03-08T14:04:41;23.23;;;17.23;;
21352;SDS011;10834;52.268;6.770;2024-03-08T14:07:25;25.60;;;16.70;;
21352;SDS011;10834;52.268;6.770;2024-03-08T14:10:09;24.63;;;15.63;;
21352;SDS011;10834;52.268;6.770;2024-03-08T14:12:54;23.47;;;15.37;;
21352;SDS011;10834;52.268;6.770;2024-03-08T14:15:38;25.23;;;15.63;;
21352;SDS011;10834;52.268;6.770;2024-03-08T14:18:25;25.90;;;16.50;;
21352;SDS011;10834;52.268;6.770;2024-03-08T14:21:13;23.17;;;15.13;;
21352;SDS011;10834;52.268;6.770;2024-03-08T14:23:57;21.80;;;15.80;;
21352;SDS011;10834;52.268;6.770;2024-03-08T14:26:41;26.50;;;19.48;;
21352;SDS011;10834;52.268;6.770;2024-03-08T14:29:26;24.00;;;16.67;;
21352;SDS011;10834;52.268;6.770;2024-03-08T14:32:13;23.57;;;16.43;;
21352;SDS011;10834;52.268;6.770;2024-03-08T14:34:57;24.60;;;16.03;;
21352;SDS011;10834;52.268;6.770;2024-03-08T14:37:42;24.83;;;17.30;;
21352;SDS011;10834;52.268;6.770;2024-03-08T14:40:27;24.17;;;17.10;;
21352;SDS011;10834;52.268;6.770;2024-03-08T14:43:14;26.33;;;18.33;;
21352;SDS011;10834;52.268;6.770;2024-03-08T14:45:58;27.43;;;18.37;;
21352;SDS011;10834;52.268;6.770;2024-03-08T14:48:43;27.13;;;18.50;;
21352;SDS011;10834;52.268;6.770;2024-03-08T14:51:28;28.90;;;19.33;;
21352;SDS011;10834;52.268;6.770;2024-03-08T14:54:12;28.60;;;17.83;;
21352;SDS011;10834;52.268;6.770;2024-03-08T14:56:56;28.43;;;18.67;;
21352;SDS011;10834;52.268;6.770;2024-03-08T14:59:40;27.70;;;18.03;;
21352;SDS011;10834;52.268;6.770;2024-03-08T15:02:26;25.67;;;17.23;;
21352;SDS011;10834;52.268;6.770;2024-03-08T15:05:10;28.30;;;17.93;;
21352;SDS011;10834;52.268;6.770;2024-03-08T15:07:55;24.83;;;17.40;;
21352;SDS011;10834;52.268;6.770;2024-03-08T15:10:39;26.67;;;17.73;;
21352;SDS011;10834;52.268;6.770;2024-03-08T15:13:24;23.10;;;16.40;;
21352;SDS011;10834;52.268;6.770;2024-03-08T15:16:17;26.17;;;16.77;;
21352;SDS011;10834;52.268;6.770;2024-03-08T15:19:01;26.23;;;17.80;;
21352;SDS011;10834;52.268;6.770;2024-03-08T15:21:46;26.80;;;17.33;;
21352;SDS011;10834;52.268;6.770;2024-03-08T15:24:32;25.23;;;17.27;;
21352;SDS011;10834;52.268;6.770;2024-03-08T15:27:16;26.90;;;16.50;;
21352;SDS011;10834;52.268;6.770;2024-03-08T15:30:00;22.83;;;15.77;;
21352;SDS011;10834;52.268;6.770;2024-03-08T15:32:46;28.58;;;21.30;;
21352;SDS011;10834;52.268;6.770;2024-03-08T15:35:31;26.20;;;17.83;;
21352;SDS011;10834;52.268;6.770;2024-03-08T15:38:15;25.10;;;17.13;;
21352;SDS011;10834;52.268;6.770;2024-03-08T15:41:02;25.00;;;17.17;;
21352;SDS011;10834;52.268;6.770;2024-03-08T15:43:53;24.90;;;17.27;;
21352;SDS011;10834;52.268;6.770;2024-03-08T15:46:38;23.97;;;16.73;;
21352;SDS011;10834;52.268;6.770;2024-03-08T15:49:23;26.73;;;16.27;;
21352;SDS011;10834;52.268;6.770;2024-03-08T15:52:10;23.37;;;15.20;;
21352;SDS011;10834;52.268;6.770;2024-03-08T15:54:55;22.87;;;16.70;;
21352;SDS011;10834;52.268;6.770;2024-03-08T15:57:39;25.60;;;17.40;;
21352;SDS011;10834;52.268;6.770;2024-03-08T16:00:24;28.10;;;18.40;;
21352;SDS011;10834;52.268;6.770;2024-03-08T16:03:18;25.80;;;16.67;;
21352;SDS011;10834;52.268;6.770;2024-03-08T16:06:04;23.70;;;16.47;;
21352;SDS011;10834;52.268;6.770;2024-03-08T16:08:50;26.63;;;17.73;;
21352;SDS011;10834;52.268;6.770;2024-03-08T16:11:35;26.83;;;17.10;;
21352;SDS011;10834;52.268;6.770;2024-03-08T16:14:21;25.90;;;15.97;;
21352;SDS011;10834;52.268;6.770;2024-03-08T16:17:06;28.23;;;16.93;;